Time;durP1;ratioP1;P1;durP2;ratioP2;P2;SDS_P1;SDS_P2;PMS_P1;PMS_P2;Temp;Humidity;BMP_temperature;BMP_pressure;BME280_temperature;BME280_humidity;BME280_pressure;Samples;Min_cycle;Max_cycle;Signal;HPM_P1;HPM_P2
2023/01/05 00:01:57;;;;;;;;;;;16.70;97.60;;;;;;5036363;28;19935;-85
2023/01/05 00:04:22;;;;;;;;;;;16.70;97.60;;;;;;5036287;28;20011;-85
2023/01/05 00:06:48;;;;;;;;;;;16.70;97.70;;;;;;5052848;28;19909;-85
2023/01/05 00:09:23;;;;;;;;;;;16.70;97.80;;;;;;5036381;28;19948;-86
2023/01/05 00:22:49;;;;;;;;;;;16.60;98.10;;;;;;5053401;28;20028;-85
2023/01/05 00:25:28;;;;;;;;;;;16.50;98.10;;;;;;5035869;28;19919;-84
2023/01/05 00:27:55;;;;;;;;;;;16.50;98.10;;;;;;5022851;28;20335;-85
2023/01/05 00:30:29;;;;;;;;;;;16.50;98.10;;;;;;5040050;28;19916;-85
2023/01/05 00:32:58;;;;;;;;;;;16.50;98.20;;;;;;5039268;28;19992;-85
2023/01/05 00:35:23;;;;;;;;;;;16.50;98.20;;;;;;5039771;28;19959;-85
2023/01/05 00:37:49;;;;;;;;;;;16.50;98.30;;;;;;5040860;28;19952;-85
2023/01/05 00:40:15;;;;;;;;;;;16.50;98.30;;;;;;5040134;28;19909;-85
2023/01/05 00:42:41;;;;;;;;;;;16.40;98.30;;;;;;5057607;28;20234;-85
2023/01/05 00:45:16;;;;;;;;;;;16.40;98.40;;;;;;5040256;28;20194;-86
2023/01/05 00:47:54;;;;;;;;;;;16.40;98.40;;;;;;5039141;28;19909;-85
2023/01/05 00:50:22;;;;;;;;;;;16.40;98.40;;;;;;5040478;28;19917;-85
2023/01/05 00:52:47;;;;;;;;;;;16.40;98.50;;;;;;5040304;28;19916;-85
2023/01/05 00:55:13;;;;;;;;;;;16.30;98.50;;;;;;5040117;28;19930;-86
2023/01/05 00:57:45;;;;;;;;;;;16.30;98.60;;;;;;5040308;28;19936;-85
2023/01/05 01:00:13;;;;;;;;;;;16.30;98.60;;;;;;5056830;28;20175;-84
2023/01/05 01:02:38;;;;;;;;;;;16.30;98.60;;;;;;5039765;28;19909;-85
2023/01/05 01:05:04;;;;;;;;;;;16.30;98.70;;;;;;5039531;28;20099;-84
2023/01/05 01:07:30;;;;;;;;;;;16.30;98.70;;;;;;5038257;28;19955;-87
2023/01/05 01:09:56;;;;;;;;;;;16.20;98.80;;;;;;5057235;28;19940;-86
2023/01/05 01:12:21;;;;;;;;;;;16.20;98.90;;;;;;5039000;28;20259;-84
2023/01/05 01:14:48;;;;;;;;;;;16.20;98.90;;;;;;5039189;28;19923;-84
2023/01/05 01:17:14;;;;;;;;;;;16.20;98.90;;;;;;5039319;28;19909;-84
2023/01/05 01:19:40;;;;;;;;;;;16.20;99.00;;;;;;5056757;28;19909;-84
2023/01/05 01:22:14;;;;;;;;;;;16.20;99.00;;;;;;5039467;28;19932;-84
2023/01/05 01:24:47;;;;;;;;;;;16.10;99.00;;;;;;5038178;28;19909;-85
2023/01/05 01:27:13;;;;;;;;;;;16.20;99.10;;;;;;5037030;28;20263;-84
2023/01/05 01:29:38;;;;;;;;;;;16.10;99.10;;;;;;5036361;28;19916;-85
2023/01/05 01:32:04;;;;;;;;;;;16.10;99.10;;;;;;5036739;28;19921;-85
2023/01/05 01:34:38;;;;;;;;;;;16.10;99.10;;;;;;5035532;28;19928;-85
2023/01/05 01:37:04;;;;;;;;;;;16.10;99.20;;;;;;5036672;28;20351;-84
2023/01/05 01:39:30;;;;;;;;;;;16.10;99.20;;;;;;5035005;28;19913;-85
2023/01/05 01:41:55;;;;;;;;;;;16.10;99.20;;;;;;5037201;28;19909;-85
2023/01/05 01:44:40;;;;;;;;;;;16.10;99.30;;;;;;5035452;28;19909;-85
2023/01/05 01:47:05;;;;;;;;;;;16.00;99.30;;;;;;5035731;28;19909;-85
2023/01/05 01:49:31;;;;;;;;;;;16.00;99.30;;;;;;5035646;28;20007;-85
2023/01/05 01:51:56;;;;;;;;;;;16.00;99.30;;;;;;5036641;28;19909;-85
2023/01/05 01:54:28;;;;;;;;;;;16.00;99.40;;;;;;5036913;28;19909;-85
2023/01/05 01:56:54;;;;;;;;;;;16.00;99.40;;;;;;5037510;28;19923;-85
2023/01/05 01:59:21;;;;;;;;;;;16.00;99.40;;;;;;5037217;28;19909;-86
2023/01/05 02:01:49;;;;;;;;;;;16.00;99.40;;;;;;5038190;28;19909;-86
2023/01/05 02:04:31;;;;;;;;;;;16.00;99.50;;;;;;5038072;28;20304;-85
2023/01/05 02:06:58;;;;;;;;;;;15.90;99.50;;;;;;5036286;28;19974;-85
2023/01/05 02:09:23;;;;;;;;;;;15.90;99.50;;;;;;5036089;28;19913;-85
2023/01/05 02:12:01;;;;;;;;;;;15.90;99.60;;;;;;5037425;28;19986;-85
2023/01/05 02:14:46;;;;;;;;;;;15.90;99.60;;;;;;5038378;28;19913;-85
2023/01/05 02:17:26;;;;;;;;;;;15.90;99.60;;;;;;5036847;28;19939;-85
2023/01/05 02:20:20;;;;;;;;;;;15.90;99.60;;;;;;5037708;28;19909;-85
2023/01/05 02:22:55;;;;;;;;;;;15.90;99.60;;;;;;5037495;28;20005;-85
2023/01/05 02:25:51;;;;;;;;;;;15.80;99.60;;;;;;5037353;28;19923;-85
2023/01/05 02:28:19;;;;;;;;;;;15.80;99.70;;;;;;5000979;28;19909;-85
2023/01/05 02:31:03;;;;;;;;;;;15.80;99.70;;;;;;5038092;28;20008;-85
2023/01/05 02:33:53;;;;;;;;;;;15.80;99.70;;;;;;5036801;28;19916;-85
2023/01/05 02:36:19;;;;;;;;;;;15.80;99.70;;;;;;5054483;28;19913;-85
2023/01/05 02:38:56;;;;;;;;;;;15.80;99.70;;;;;;5037221;28;19909;-86
2023/01/05 02:41:24;;;;;;;;;;;15.80;99.70;;;;;;5036861;28;20320;-85
2023/01/05 02:43:51;;;;;;;;;;;15.80;99.70;;;;;;5054875;28;19916;-85
2023/01/05 02:46:17;;;;;;;;;;;15.80;99.80;;;;;;5056359;28;19920;-85
2023/01/05 02:48:44;;;;;;;;;;;15.80;99.80;;;;;;5037554;28;19917;-86
2023/01/05 02:51:12;;;;;;;;;;;15.80;99.80;;;;;;5036670;28;19982;-86
2023/01/05 02:53:40;;;;;;;;;;;15.80;99.80;;;;;;5053522;28;19960;-85
2023/01/05 02:56:12;;;;;;;;;;;15.80;99.80;;;;;;5037245;28;19917;-85
2023/01/05 02:58:40;;;;;;;;;;;15.80;99.80;;;;;;5037321;28;19909;-85
2023/01/05 03:01:09;;;;;;;;;;;15.80;99.80;;;;;;5054577;28;19970;-85
2023/01/05 03:03:37;;;;;;;;;;;15.70;99.80;;;;;;5037662;28;20049;-85
2023/01/05 03:06:07;;;;;;;;;;;15.70;99.80;;;;;;5054841;28;19940;-85
2023/01/05 03:08:35;;;;;;;;;;;15.70;99.80;;;;;;5037776;28;20003;-85
2023/01/05 03:13:50;;;;;;;;;;;15.70;99.90;;;;;;5055401;28;19920;-85
2023/01/05 03:16:25;;;;;;;;;;;15.70;99.90;;;;;;5038481;28;19913;-85
2023/01/05 03:35:31;;;;;;;;;;;15.70;99.90;;;;;;5055186;28;20012;-85
2023/01/05 03:37:59;;;;;;;;;;;15.60;99.90;;;;;;5037293;28;20108;-85
2023/01/05 03:40:40;;;;;;;;;;;15.60;99.90;;;;;;5038229;28;19916;-85
2023/01/05 03:43:06;;;;;;;;;;;15.60;99.90;;;;;;5038691;28;19909;-85
2023/01/05 03:45:43;;;;;;;;;;;15.60;99.90;;;;;;5035917;28;19915;-84
2023/01/05 03:48:08;;;;;;;;;;;15.60;99.90;;;;;;5036973;28;19916;-85
2023/01/05 03:50:34;;;;;;;;;;;15.50;99.90;;;;;;5036211;28;19916;-85
2023/01/05 03:53:08;;;;;;;;;;;15.50;99.90;;;;;;5037849;28;19908;-85
2023/01/05 03:55:34;;;;;;;;;;;15.60;99.90;;;;;;5036368;28;19962;-85
2023/01/05 03:57:59;;;;;;;;;;;15.80;99.80;;;;;;5035463;28;20173;-85
2023/01/05 04:00:25;;;;;;;;;;;16.80;97.50;;;;;;5035192;28;20159;-86
2023/01/05 04:02:51;;;;;;;;;;;17.40;95.70;;;;;;5053053;28;20178;-85
2023/01/05 04:05:16;;;;;;;;;;;17.70;94.60;;;;;;5036045;28;20273;-85
2023/01/05 04:07:49;;;;;;;;;;;17.90;93.70;;;;;;5037399;28;19958;-85
2023/01/05 04:10:15;;;;;;;;;;;18.10;93.00;;;;;;5036434;28;19951;-85
2023/01/05 04:12:40;;;;;;;;;;;18.30;92.40;;;;;;5037665;28;20013;-85
2023/01/05 04:15:06;;;;;;;;;;;18.40;91.90;;;;;;5037281;28;20050;-85
2023/01/05 04:17:32;;;;;;;;;;;18.50;91.40;;;;;;5037598;28;20147;-85
2023/01/05 04:20:07;;;;;;;;;;;18.60;91.00;;;;;;5037863;28;19962;-85
2023/01/05 04:22:33;;;;;;;;;;;18.70;90.70;;;;;;5037856;28;19936;-85
2023/01/05 04:24:58;;;;;;;;;;;18.80;90.40;;;;;;5036989;28;20295;-85
2023/01/05 04:27:24;;;;;;;;;;;18.80;90.10;;;;;;5054034;28;19962;-85
2023/01/05 04:29:50;;;;;;;;;;;18.80;90.10;;;;;;5036771;28;20186;-86
2023/01/05 04:32:15;;;;;;;;;;;18.80;90.30;;;;;;5035113;28;20187;-85
2023/01/05 04:34:41;;;;;;;;;;;18.80;90.00;;;;;;5037534;28;19928;-86
2023/01/05 04:37:06;;;;;;;;;;;18.70;90.10;;;;;;5037093;28;19909;-87
2023/01/05 04:39:32;;;;;;;;;;;18.70;90.20;;;;;;5037506;28;19952;-86
2023/01/05 04:41:57;;;;;;;;;;;18.70;90.20;;;;;;5035289;28;20289;-86
2023/01/05 04:44:23;;;;;;;;;;;18.60;90.40;;;;;;5034230;28;19909;-87
2023/01/05 04:46:48;;;;;;;;;;;18.50;90.60;;;;;;5034274;28;19958;-85
2023/01/05 04:49:14;;;;;;;;;;;18.50;90.80;;;;;;5052225;28;19923;-86
2023/01/05 04:51:40;;;;;;;;;;;18.40;91.00;;;;;;5033997;28;19944;-86
2023/01/05 04:54:12;;;;;;;;;;;18.30;91.30;;;;;;5035445;28;19979;-85
2023/01/05 04:56:37;;;;;;;;;;;18.20;91.50;;;;;;5054100;28;19978;-85
2023/01/05 04:59:12;;;;;;;;;;;18.10;91.80;;;;;;5037059;28;19909;-85
2023/01/05 05:01:41;;;;;;;;;;;18.00;92.10;;;;;;5036351;28;19920;-85
2023/01/05 05:04:06;;;;;;;;;;;17.90;92.40;;;;;;5036989;28;19916;-85
2023/01/05 05:06:32;;;;;;;;;;;17.80;92.70;;;;;;5037352;28;19916;-85
2023/01/05 05:08:57;;;;;;;;;;;17.70;92.90;;;;;;5035329;28;19909;-85
2023/01/05 05:11:23;;;;;;;;;;;17.70;93.20;;;;;;5034601;28;19909;-85
2023/01/05 05:13:48;;;;;;;;;;;17.60;93.40;;;;;;5036088;28;20291;-85
2023/01/05 05:16:14;;;;;;;;;;;17.50;93.60;;;;;;5036991;28;20372;-85
2023/01/05 05:18:52;;;;;;;;;;;17.40;93.90;;;;;;5037016;28;19956;-86
2023/01/05 05:21:17;;;;;;;;;;;17.30;94.10;;;;;;5037548;28;19913;-86
2023/01/05 05:23:43;;;;;;;;;;;17.30;94.30;;;;;;5038266;28;20122;-86
2023/01/05 05:26:08;;;;;;;;;;;17.20;94.40;;;;;;5038509;28;20031;-86
2023/01/05 05:28:40;;;;;;;;;;;17.20;94.70;;;;;;5039016;28;19913;-85
2023/01/05 05:31:18;;;;;;;;;;;17.10;94.80;;;;;;5039483;28;19940;-86
2023/01/05 05:33:44;;;;;;;;;;;17.10;95.00;;;;;;5039633;28;19972;-86
2023/01/05 05:36:10;;;;;;;;;;;17.10;95.00;;;;;;5057145;28;20187;-86
2023/01/05 05:38:36;;;;;;;;;;;17.10;94.90;;;;;;5041492;28;19909;-86
2023/01/05 05:41:03;;;;;;;;;;;17.20;94.60;;;;;;5040737;28;19909;-86
2023/01/05 05:43:28;;;;;;;;;;;17.30;94.30;;;;;;5040166;28;19909;-86
2023/01/05 05:45:54;;;;;;;;;;;17.50;93.80;;;;;;5040702;28;19913;-86
2023/01/05 05:48:24;;;;;;;;;;;17.70;93.20;;;;;;5040946;28;20198;-86
2023/01/05 05:50:49;;;;;;;;;;;17.80;92.70;;;;;;5056508;28;19995;-86
2023/01/05 05:53:15;;;;;;;;;;;18.00;92.30;;;;;;5056739;28;20334;-86
2023/01/05 05:55:52;;;;;;;;;;;18.10;91.90;;;;;;5038281;28;20349;-86
2023/01/05 05:58:18;;;;;;;;;;;18.20;91.40;;;;;;5037397;28;19948;-86
2023/01/05 06:00:44;;;;;;;;;;;18.30;91.00;;;;;;5055999;28;19909;-85
2023/01/05 06:03:12;;;;;;;;;;;18.30;90.70;;;;;;5055106;28;19909;-86
2023/01/05 06:05:37;;;;;;;;;;;18.40;90.40;;;;;;5053404;28;20074;-86
2023/01/05 06:08:03;;;;;;;;;;;18.50;90.30;;;;;;5054059;28;20067;-87
2023/01/05 06:10:29;;;;;;;;;;;18.50;90.10;;;;;;5036746;28;19909;-87
2023/01/05 06:12:58;;;;;;;;;;;18.50;90.10;;;;;;5036317;28;20305;-88
2023/01/05 06:15:33;;;;;;;;;;;18.40;90.20;;;;;;5037697;28;20007;-87
2023/01/05 06:17:58;;;;;;;;;;;18.40;90.30;;;;;;5038439;28;19909;-88
2023/01/05 06:20:24;;;;;;;;;;;18.40;90.30;;;;;;5038078;28;19921;-87
2023/01/05 06:22:50;;;;;;;;;;;18.30;90.50;;;;;;5038734;28;20271;-87
2023/01/05 06:25:15;;;;;;;;;;;18.20;90.70;;;;;;5038234;28;20364;-88
2023/01/05 06:27:41;;;;;;;;;;;18.10;90.90;;;;;;5038009;28;19913;-88
2023/01/05 06:30:10;;;;;;;;;;;18.00;91.20;;;;;;5038227;28;19909;-87
2023/01/05 06:32:36;;;;;;;;;;;18.00;91.50;;;;;;5037049;28;19925;-87
2023/01/05 06:35:02;;;;;;;;;;;17.90;91.60;;;;;;5034877;28;19978;-87
2023/01/05 06:37:27;;;;;;;;;;;17.80;91.80;;;;;;5037258;28;20254;-87
2023/01/05 06:39:55;;;;;;;;;;;17.80;92.00;;;;;;5053243;28;19916;-87
2023/01/05 06:42:20;;;;;;;;;;;17.70;92.20;;;;;;5035732;28;19920;-87
2023/01/05 06:44:46;;;;;;;;;;;17.60;92.50;;;;;;5033724;28;19909;-87
2023/01/05 06:47:12;;;;;;;;;;;17.50;92.70;;;;;;5036001;28;19961;-87
2023/01/05 06:49:38;;;;;;;;;;;17.40;93.00;;;;;;5035430;28;20249;-87
2023/01/05 06:52:03;;;;;;;;;;;17.40;93.20;;;;;;5034729;28;19909;-86
2023/01/05 06:54:29;;;;;;;;;;;17.30;93.40;;;;;;5032971;28;20007;-87
2023/01/05 06:56:55;;;;;;;;;;;17.30;93.70;;;;;;5033429;28;19924;-87
2023/01/05 06:59:20;;;;;;;;;;;17.20;93.80;;;;;;5048541;28;19940;-87
2023/01/05 07:01:51;;;;;;;;;;;17.20;93.90;;;;;;5033501;28;20046;-86
2023/01/05 07:04:23;;;;;;;;;;;17.20;94.00;;;;;;5029959;28;19944;-87
2023/01/05 07:06:49;;;;;;;;;;;17.20;94.00;;;;;;5032870;28;19936;-87
2023/01/05 07:09:14;;;;;;;;;;;17.20;94.10;;;;;;5033933;28;20201;-86
2023/01/05 07:11:40;;;;;;;;;;;17.20;94.10;;;;;;5032516;28;19970;-87
2023/01/05 07:14:06;;;;;;;;;;;17.20;94.10;;;;;;5032836;28;19970;-88
2023/01/05 07:16:31;;;;;;;;;;;17.20;94.00;;;;;;5033815;28;19921;-87
2023/01/05 07:18:57;;;;;;;;;;;17.30;93.90;;;;;;5033851;28;19985;-87
2023/01/05 07:21:22;;;;;;;;;;;17.40;93.80;;;;;;5033293;28;19952;-87
2023/01/05 07:23:48;;;;;;;;;;;17.40;94.00;;;;;;5032021;28;19909;-87
2023/01/05 07:26:19;;;;;;;;;;;17.40;94.10;;;;;;5033117;28;19908;-87
2023/01/05 07:28:45;;;;;;;;;;;17.40;94.20;;;;;;5031975;28;20024;-87
2023/01/05 07:31:12;;;;;;;;;;;17.40;94.20;;;;;;5032736;28;19999;-86
2023/01/05 07:33:38;;;;;;;;;;;17.40;94.20;;;;;;5050253;28;19917;-86
2023/01/05 07:36:04;;;;;;;;;;;17.50;94.30;;;;;;5033550;28;20324;-86
2023/01/05 07:38:31;;;;;;;;;;;17.60;94.00;;;;;;5033815;28;19971;-87
2023/01/05 07:41:09;;;;;;;;;;;17.60;93.90;;;;;;5031816;28;19909;-88
2023/01/05 07:43:34;;;;;;;;;;;17.60;94.00;;;;;;5033154;28;19908;-88
2023/01/05 07:46:00;;;;;;;;;;;17.70;94.00;;;;;;5031520;28;19915;-88
2023/01/05 07:48:26;;;;;;;;;;;17.70;94.10;;;;;;5030031;28;19908;-88
2023/01/05 07:51:00;;;;;;;;;;;17.70;94.10;;;;;;5032935;28;19931;-88
2023/01/05 07:53:25;;;;;;;;;;;17.70;94.00;;;;;;5032072;28;20015;-87
2023/01/05 07:55:58;;;;;;;;;;;17.70;93.90;;;;;;5033206;28;20011;-87
2023/01/05 07:58:24;;;;;;;;;;;17.80;93.90;;;;;;5031763;28;19909;-87
2023/01/05 08:00:50;;;;;;;;;;;17.70;93.80;;;;;;5032444;28;20187;-87
2023/01/05 08:03:15;;;;;;;;;;;17.70;93.90;;;;;;5030762;28;20047;-87
2023/01/05 08:05:41;;;;;;;;;;;17.70;94.00;;;;;;5031413;28;20290;-87
2023/01/05 08:08:06;;;;;;;;;;;17.70;94.10;;;;;;5030321;28;20085;-87
2023/01/05 08:10:32;;;;;;;;;;;17.60;94.30;;;;;;5030305;28;19983;-87
2023/01/05 08:15:51;;;;;;;;;;;17.60;94.30;;;;;;5047606;28;19924;-88
2023/01/05 08:18:17;;;;;;;;;;;17.60;94.60;;;;;;5031469;28;19909;-88
2023/01/05 08:20:48;;;;;;;;;;;17.50;94.80;;;;;;5029488;28;19909;-89
2023/01/05 08:23:13;;;;;;;;;;;17.40;94.90;;;;;;5031729;28;20339;-88
2023/01/05 08:25:39;;;;;;;;;;;17.40;95.10;;;;;;5048367;28;20337;-89
2023/01/05 08:28:04;;;;;;;;;;;17.40;95.20;;;;;;5030836;28;19909;-88
2023/01/05 08:30:30;;;;;;;;;;;17.30;95.40;;;;;;5048175;28;20152;-88
2023/01/05 08:32:55;;;;;;;;;;;17.30;95.60;;;;;;5030630;28;19924;-88
2023/01/05 08:35:21;;;;;;;;;;;17.30;95.80;;;;;;5030322;28;19919;-88
2023/01/05 08:37:46;;;;;;;;;;;17.20;96.00;;;;;;5029242;28;20237;-88
2023/01/05 08:40:12;;;;;;;;;;;17.20;96.20;;;;;;5030662;28;20169;-88
2023/01/05 08:42:39;;;;;;;;;;;17.10;96.30;;;;;;5031619;28;20158;-88
2023/01/05 08:45:05;;;;;;;;;;;17.00;96.60;;;;;;5031438;28;20191;-87
2023/01/05 08:47:30;;;;;;;;;;;16.90;96.90;;;;;;5029988;28;19909;-87
2023/01/05 08:50:11;;;;;;;;;;;16.90;97.10;;;;;;5031269;28;19920;-88
2023/01/05 08:52:37;;;;;;;;;;;16.90;97.30;;;;;;5033593;28;19955;-87
2023/01/05 08:55:03;;;;;;;;;;;16.80;97.50;;;;;;5032844;28;19913;-87
2023/01/05 08:57:29;;;;;;;;;;;16.80;97.60;;;;;;5032781;28;20007;-87
2023/01/05 08:59:55;;;;;;;;;;;16.70;97.70;;;;;;5051634;28;20084;-88
2023/01/05 09:02:20;;;;;;;;;;;16.70;97.90;;;;;;5038949;28;20148;-87
2023/01/05 09:04:46;;;;;;;;;;;16.70;97.90;;;;;;5032731;28;20011;-87
2023/01/05 09:07:11;;;;;;;;;;;16.70;97.80;;;;;;5033970;28;20195;-87
2023/01/05 09:09:37;;;;;;;;;;;16.70;97.80;;;;;;5031181;28;19931;-88
2023/01/05 09:12:03;;;;;;;;;;;16.70;97.80;;;;;;5030918;28;19990;-87
2023/01/05 09:14:40;;;;;;;;;;;16.80;97.60;;;;;;5032474;28;20037;-87
2023/01/05 09:17:06;;;;;;;;;;;16.90;97.40;;;;;;5031062;28;19915;-87
2023/01/05 09:19:31;;;;;;;;;;;17.00;97.00;;;;;;5032437;28;19908;-87
2023/01/05 09:21:57;;;;;;;;;;;17.20;96.70;;;;;;5049689;28;19909;-87
2023/01/05 09:24:23;;;;;;;;;;;17.30;96.30;;;;;;5033620;28;20045;-87
2023/01/05 09:26:56;;;;;;;;;;;17.40;95.90;;;;;;5033641;28;20138;-87
2023/01/05 09:29:22;;;;;;;;;;;17.60;95.40;;;;;;5034230;28;19909;-87
2023/01/05 09:31:48;;;;;;;;;;;17.70;95.10;;;;;;5033350;28;20187;-87
2023/01/05 09:34:14;;;;;;;;;;;17.80;94.70;;;;;;5051740;28;19909;-87
2023/01/05 09:36:40;;;;;;;;;;;17.90;94.50;;;;;;5034871;28;19935;-87
2023/01/05 09:39:05;;;;;;;;;;;17.90;94.30;;;;;;5035322;28;20286;-87
2023/01/05 09:41:40;;;;;;;;;;;18.00;94.20;;;;;;5035220;28;20336;-87
2023/01/05 09:44:13;;;;;;;;;;;18.00;94.10;;;;;;5048681;28;19923;-87
2023/01/05 09:46:40;;;;;;;;;;;17.90;94.10;;;;;;5030755;28;20222;-87
2023/01/05 09:49:10;;;;;;;;;;;17.90;94.30;;;;;;5031235;28;20073;-87
2023/01/05 09:51:36;;;;;;;;;;;17.80;94.30;;;;;;5048471;28;20278;-86
2023/01/05 09:54:02;;;;;;;;;;;17.80;94.50;;;;;;5031898;28;19917;-87
2023/01/05 09:56:30;;;;;;;;;;;17.70;94.70;;;;;;5034730;28;19970;-87
2023/01/05 09:59:01;;;;;;;;;;;17.60;94.80;;;;;;5035245;28;19920;-87
2023/01/05 10:01:35;;;;;;;;;;;17.60;95.00;;;;;;5033291;28;19908;-87
2023/01/05 10:04:02;;;;;;;;;;;17.50;95.20;;;;;;5032992;28;19916;-87
2023/01/05 10:06:31;;;;;;;;;;;17.40;95.50;;;;;;5050807;28;19909;-87
2023/01/05 10:08:57;;;;;;;;;;;17.30;95.70;;;;;;5033282;28;20105;-87
2023/01/05 10:14:30;;;;;;;;;;;17.20;96.10;;;;;;5027376;28;19970;-87
2023/01/05 10:16:56;;;;;;;;;;;17.20;96.20;;;;;;5033539;28;19995;-87
2023/01/05 10:19:28;;;;;;;;;;;17.10;96.30;;;;;;5033192;28;20007;-87
2023/01/05 10:21:58;;;;;;;;;;;17.10;96.50;;;;;;5034505;28;19919;-87
2023/01/05 10:24:44;;;;;;;;;;;17.10;96.60;;;;;;5033205;28;20278;-87
2023/01/05 10:27:18;;;;;;;;;;;17.10;96.60;;;;;;5048114;28;19909;-87
2023/01/05 10:29:45;;;;;;;;;;;17.00;96.70;;;;;;5050178;28;19916;-87
2023/01/05 10:32:25;;;;;;;;;;;17.00;96.70;;;;;;5032440;28;20274;-87
2023/01/05 10:34:55;;;;;;;;;;;17.00;96.80;;;;;;5032202;28;19920;-86
2023/01/05 10:37:32;;;;;;;;;;;17.00;96.90;;;;;;5030694;28;20001;-87
2023/01/05 10:40:10;;;;;;;;;;;17.00;96.90;;;;;;5048403;28;20220;-87
2023/01/05 10:42:54;;;;;;;;;;;17.00;96.80;;;;;;5031037;28;20114;-86
2023/01/05 10:45:20;;;;;;;;;;;17.10;96.90;;;;;;5030642;28;19908;-87
2023/01/05 10:47:47;;;;;;;;;;;17.10;96.70;;;;;;5033429;28;19912;-86
2023/01/05 10:50:33;;;;;;;;;;;17.20;96.50;;;;;;5034006;28;19909;-87
2023/01/05 10:53:12;;;;;;;;;;;17.30;96.30;;;;;;5030899;28;20256;-86
2023/01/05 10:55:56;;;;;;;;;;;17.50;95.90;;;;;;5032079;28;20023;-86
2023/01/05 10:58:23;;;;;;;;;;;17.60;95.50;;;;;;5030220;28;20049;-86
2023/01/05 11:00:49;;;;;;;;;;;17.70;95.20;;;;;;5047717;28;20356;-86
2023/01/05 11:03:15;;;;;;;;;;;17.80;94.90;;;;;;5029475;28;20090;-86
2023/01/05 11:05:44;;;;;;;;;;;17.90;94.50;;;;;;5029737;28;20171;-86
2023/01/05 11:08:12;;;;;;;;;;;18.00;94.30;;;;;;5031892;28;19916;-86
2023/01/05 11:10:57;;;;;;;;;;;18.10;94.00;;;;;;5031993;28;19971;-86
2023/01/05 11:13:32;;;;;;;;;;;18.20;93.80;;;;;;5047923;28;20177;-86
2023/01/05 11:16:00;;;;;;;;;;;18.20;93.60;;;;;;5030650;28;20024;-86
2023/01/05 11:18:26;;;;;;;;;;;18.20;93.40;;;;;;5027886;28;19914;-86
2023/01/05 11:21:05;;;;;;;;;;;18.20;93.40;;;;;;5030275;28;19913;-86
2023/01/05 11:23:33;;;;;;;;;;;18.20;93.40;;;;;;5030817;28;19931;-86
2023/01/05 11:26:10;;;;;;;;;;;18.20;93.40;;;;;;5027293;28;19912;-86
2023/01/05 11:28:36;;;;;;;;;;;18.20;93.40;;;;;;5044950;28;20067;-86
2023/01/05 11:31:03;;;;;;;;;;;18.20;93.60;;;;;;5028745;28;20315;-86
2023/01/05 11:33:30;;;;;;;;;;;18.10;93.70;;;;;;5028115;28;20199;-87
2023/01/05 11:35:56;;;;;;;;;;;18.00;93.90;;;;;;5028662;28;20010;-87
2023/01/05 11:38:24;;;;;;;;;;;18.00;94.10;;;;;;5029116;28;20476;-86
2023/01/05 11:40:50;;;;;;;;;;;17.90;94.30;;;;;;5029653;28;19960;-86
2023/01/05 11:43:16;;;;;;;;;;;17.90;94.40;;;;;;5029782;28;19931;-86
2023/01/05 11:45:59;;;;;;;;;;;17.80;94.60;;;;;;5029445;28;19948;-86
2023/01/05 11:48:30;;;;;;;;;;;17.80;94.80;;;;;;5029861;28;19916;-86
2023/01/05 11:50:57;;;;;;;;;;;17.70;94.90;;;;;;5030999;28;20097;-86
2023/01/05 11:53:25;;;;;;;;;;;17.70;95.10;;;;;;5029028;28;19909;-87
2023/01/05 11:56:02;;;;;;;;;;;17.60;95.30;;;;;;5027889;28;20313;-86
2023/01/05 11:58:40;;;;;;;;;;;17.50;95.40;;;;;;5028146;28;19909;-86
2023/01/05 12:01:05;;;;;;;;;;;17.50;95.60;;;;;;5030660;28;19921;-86
2023/01/05 12:03:41;;;;;;;;;;;17.50;95.70;;;;;;5029310;28;20383;-86
2023/01/05 12:06:18;;;;;;;;;;;17.40;95.90;;;;;;5030610;28;19913;-86
2023/01/05 12:08:50;;;;;;;;;;;17.40;96.00;;;;;;5030922;28;19966;-86
2023/01/05 12:11:20;;;;;;;;;;;17.30;96.10;;;;;;5030873;28;20113;-86
2023/01/05 12:13:52;;;;;;;;;;;17.30;96.20;;;;;;5030300;28;19917;-86
2023/01/05 12:16:32;;;;;;;;;;;17.30;96.30;;;;;;5031057;28;19921;-86
2023/01/05 12:18:57;;;;;;;;;;;17.40;96.30;;;;;;5047278;28;20301;-86
2023/01/05 12:21:24;;;;;;;;;;;17.40;96.30;;;;;;5027437;28;19909;-86
2023/01/05 12:23:58;;;;;;;;;;;17.40;96.30;;;;;;5048781;28;19909;-87
2023/01/05 12:26:28;;;;;;;;;;;17.40;96.20;;;;;;5032630;28;19913;-86
2023/01/05 12:28:54;;;;;;;;;;;17.40;96.20;;;;;;5031735;28;19944;-87
2023/01/05 12:31:40;;;;;;;;;;;17.50;96.20;;;;;;5038757;28;20221;-86
2023/01/05 12:34:08;;;;;;;;;;;17.50;96.10;;;;;;5031044;28;19943;-86
2023/01/05 12:36:43;;;;;;;;;;;17.50;96.00;;;;;;5049878;28;19921;-86
2023/01/05 12:39:11;;;;;;;;;;;17.60;96.00;;;;;;5034230;28;19952;-86
2023/01/05 12:42:09;;;;;;;;;;;17.60;96.00;;;;;;5032368;28;19977;-86
2023/01/05 12:44:54;;;;;;;;;;;17.50;96.00;;;;;;5033094;28;20217;-86
2023/01/05 12:47:40;;;;;;;;;;;17.50;96.10;;;;;;5031862;28;20187;-86
2023/01/05 12:50:24;;;;;;;;;;;17.50;96.20;;;;;;5023977;28;20245;-86
2023/01/05 12:52:55;;;;;;;;;;;17.50;96.40;;;;;;5033954;28;20186;-86
2023/01/05 12:55:35;;;;;;;;;;;17.40;96.60;;;;;;5032336;28;19920;-86
2023/01/05 12:58:04;;;;;;;;;;;17.40;96.60;;;;;;5034024;28;19939;-86
2023/01/05 13:00:32;;;;;;;;;;;17.30;96.80;;;;;;5033434;28;20002;-86
2023/01/05 13:02:59;;;;;;;;;;;17.30;96.90;;;;;;5031941;28;19995;-86
2023/01/05 13:05:33;;;;;;;;;;;17.30;97.00;;;;;;5031679;28;19908;-86
2023/01/05 13:07:58;;;;;;;;;;;17.20;97.10;;;;;;5030639;28;20020;-86
2023/01/05 13:10:27;;;;;;;;;;;17.20;97.40;;;;;;5031680;28;20012;-86
2023/01/05 13:12:57;;;;;;;;;;;17.30;97.10;;;;;;5045761;28;19951;-86
2023/01/05 13:15:29;;;;;;;;;;;17.30;97.00;;;;;;5032139;28;20257;-86
2023/01/05 13:17:58;;;;;;;;;;;17.30;97.00;;;;;;5047401;28;19908;-86
2023/01/05 13:20:27;;;;;;;;;;;17.30;97.00;;;;;;5028408;28;19909;-86
2023/01/05 13:23:02;;;;;;;;;;;17.40;96.90;;;;;;5029900;28;19909;-86
2023/01/05 13:25:29;;;;;;;;;;;17.50;96.70;;;;;;5031723;28;19970;-86
2023/01/05 13:27:55;;;;;;;;;;;17.60;96.30;;;;;;5029146;28;19913;-85
2023/01/05 13:30:22;;;;;;;;;;;17.80;96.00;;;;;;5046390;28;19913;-86
2023/01/05 13:32:55;;;;;;;;;;;17.90;95.50;;;;;;5029378;28;19982;-86
2023/01/05 13:35:23;;;;;;;;;;;18.10;95.00;;;;;;5028122;28;20061;-86
2023/01/05 13:37:58;;;;;;;;;;;18.30;94.60;;;;;;5029454;28;19909;-86
2023/01/05 13:40:43;;;;;;;;;;;18.30;94.20;;;;;;5031481;28;19909;-86
2023/01/05 13:43:18;;;;;;;;;;;18.40;94.00;;;;;;5033339;28;19936;-86
2023/01/05 13:45:50;;;;;;;;;;;18.40;94.00;;;;;;5029984;28;19909;-86
2023/01/05 13:48:31;;;;;;;;;;;18.30;94.00;;;;;;5031994;28;19971;-86
2023/01/05 13:50:56;;;;;;;;;;;18.30;94.00;;;;;;5031364;28;20139;-86
2023/01/05 13:53:23;;;;;;;;;;;18.30;94.00;;;;;;5031769;28;20007;-85
2023/01/05 13:55:52;;;;;;;;;;;18.30;94.00;;;;;;5029644;28;20052;-86
2023/01/05 13:58:28;;;;;;;;;;;18.30;94.10;;;;;;5028995;28;20055;-86
2023/01/05 14:01:01;;;;;;;;;;;18.20;94.20;;;;;;5028900;28;19909;-86
2023/01/05 14:03:40;;;;;;;;;;;18.10;94.40;;;;;;5028747;28;19908;-86
2023/01/05 14:06:13;;;;;;;;;;;18.10;94.60;;;;;;5030678;28;19974;-86
2023/01/05 14:08:39;;;;;;;;;;;18.00;94.80;;;;;;5029198;28;20077;-86
2023/01/05 14:11:24;;;;;;;;;;;17.90;95.00;;;;;;5032216;28;19966;-86
2023/01/05 14:13:53;;;;;;;;;;;17.90;95.20;;;;;;5029998;28;20030;-86
2023/01/05 14:16:34;;;;;;;;;;;17.80;95.40;;;;;;5031073;28;19920;-86
2023/01/05 14:19:18;;;;;;;;;;;17.70;95.60;;;;;;5029576;28;20075;-86
2023/01/05 14:21:47;;;;;;;;;;;17.70;95.80;;;;;;5030376;28;19939;-86
2023/01/05 14:24:31;;;;;;;;;;;17.60;96.00;;;;;;5031060;28;20113;-86
2023/01/05 14:27:16;;;;;;;;;;;17.50;96.20;;;;;;5033352;28;20069;-85
2023/01/05 14:29:56;;;;;;;;;;;17.40;96.40;;;;;;5048023;28;20278;-86
2023/01/05 14:32:25;;;;;;;;;;;17.40;96.60;;;;;;5030676;28;19920;-86
2023/01/05 14:34:52;;;;;;;;;;;17.30;96.80;;;;;;5048435;28;20021;-86
2023/01/05 14:37:26;;;;;;;;;;;17.30;96.90;;;;;;5031060;28;19915;-86
2023/01/05 14:39:53;;;;;;;;;;;17.30;97.00;;;;;;5029101;28;19915;-86
2023/01/05 14:42:45;;;;;;;;;;;17.20;97.20;;;;;;5030955;28;19970;-86
2023/01/05 14:45:20;;;;;;;;;;;17.20;97.20;;;;;;5026279;28;19909;-86
2023/01/05 14:47:47;;;;;;;;;;;17.20;97.40;;;;;;5031833;28;19916;-86
2023/01/05 14:50:32;;;;;;;;;;;17.10;97.50;;;;;;5030477;28;20088;-86
2023/01/05 14:53:03;;;;;;;;;;;17.10;97.60;;;;;;5029656;28;19908;-86
2023/01/05 14:55:43;;;;;;;;;;;17.10;97.60;;;;;;5029448;28;20258;-86
2023/01/05 14:58:35;;;;;;;;;;;17.10;97.70;;;;;;5047138;28;20019;-86
2023/01/05 15:01:16;;;;;;;;;;;17.20;97.70;;;;;;5047133;28;19999;-86
2023/01/05 15:03:56;;;;;;;;;;;17.20;97.60;;;;;;5029755;28;19970;-85
2023/01/05 15:06:25;;;;;;;;;;;17.20;97.50;;;;;;5047682;28;19934;-86
2023/01/05 15:09:09;;;;;;;;;;;17.30;97.40;;;;;;5028406;28;20093;-86